Time;durP1;ratioP1;P1;durP2;ratioP2;P2;SDS_P1;SDS_P2;PMS_P1;PMS_P2;Temp;Humidity;BMP_temperature;BMP_pressure;BME280_temperature;BME280_humidity;BME280_pressure;Samples;Min_cycle;Max_cycle;Signal;HPM_P1;HPM_P2
2021/01/16 00:00:28;;;;;;;18.15;2.42;;;;;;;-2.44;66.23;101973.69;5003092;28;20062;-83
2021/01/16 00:02:55;;;;;;;2.13;1.42;;;;;;;-2.36;67.36;101967.81;5008742;28;20126;-83
2021/01/16 00:05:23;;;;;;;3.63;2.17;;;;;;;-2.33;66.12;101967.00;5007183;28;20046;-83
2021/01/16 00:08:04;;;;;;;3.47;1.95;;;;;;;-2.32;65.60;101963.56;4984679;28;20061;-83
2021/01/16 00:10:32;;;;;;;6.55;1.88;;;;;;;-2.41;64.69;101963.44;5004214;28;20042;-82
2021/01/16 00:12:59;;;;;;;5.05;1.80;;;;;;;-2.20;65.67;101960.31;5005795;28;20048;-82
2021/01/16 00:15:27;;;;;;;3.08;1.65;;;;;;;-2.11;65.12;101958.75;5012138;28;20759;-84
2021/01/16 00:18:11;;;;;;;3.78;1.98;;;;;;;-2.38;65.80;101971.22;5015274;28;20076;-82
2021/01/16 00:20:43;;;;;;;3.40;1.65;;;;;;;-2.43;64.38;101963.41;4995540;28;20035;-84
2021/01/16 00:23:11;;;;;;;3.00;1.80;;;;;;;-2.26;64.42;101963.66;5005229;28;20042;-84
2021/01/16 00:25:38;;;;;;;3.60;1.88;;;;;;;-2.51;65.45;101962.41;5025553;28;20089;-84
2021/01/16 00:28:05;;;;;;;3.00;1.80;;;;;;;-2.44;65.24;101963.38;5014589;28;20098;-83
2021/01/16 00:30:34;;;;;;;2.80;1.65;;;;;;;-2.19;64.60;101962.91;5010202;28;20042;-83
2021/01/16 00:33:02;;;;;;;3.40;1.67;;;;;;;-2.41;64.59;101966.00;4981884;28;20054;-83
2021/01/16 00:35:31;;;;;;;4.78;2.13;;;;;;;-2.23;65.84;101965.44;4999913;28;20050;-82
2021/01/16 00:37:58;;;;;;;6.75;2.10;;;;;;;-2.21;65.20;101971.47;5001001;28;20038;-81
2021/01/16 00:40:26;;;;;;;5.55;2.10;;;;;;;-2.31;64.83;101965.31;4988376;28;20051;-83
2021/01/16 00:42:54;;;;;;;3.78;2.03;;;;;;;-2.24;66.54;101966.28;4989088;28;20057;-80
2021/01/16 00:45:23;;;;;;;3.72;2.50;;;;;;;-2.41;66.93;101971.16;5006871;28;20054;-79
2021/01/16 00:47:50;;;;;;;3.65;1.90;;;;;;;-2.49;66.63;101965.00;5007808;28;20050;-81
2021/01/16 00:50:19;;;;;;;7.22;2.80;;;;;;;-2.24;66.71;101961.97;5006176;28;20046;-80
2021/01/16 00:52:58;;;;;;;5.10;2.53;;;;;;;-2.26;65.70;101965.38;4979955;28;20867;-80
2021/01/16 00:55:25;;;;;;;4.07;2.28;;;;;;;-2.37;65.81;101970.38;4998341;28;20421;-83
2021/01/16 00:57:53;;;;;;;5.53;2.70;;;;;;;-2.24;66.29;101961.97;4986324;28;20045;-82
2021/01/16 01:00:24;;;;;;;4.72;2.20;;;;;;;-2.33;65.54;101960.13;4990397;28;20054;-81
2021/01/16 01:02:51;;;;;;;3.97;2.35;;;;;;;-2.31;65.69;101961.00;5021303;28;20034;-84
2021/01/16 01:05:23;;;;;;;3.63;2.22;;;;;;;-2.19;64.44;101956.88;4999344;28;20050;-81
2021/01/16 01:07:50;;;;;;;5.38;2.25;;;;;;;-2.31;63.72;101970.47;5007327;28;20049;-81
2021/01/16 01:10:24;;;;;;;4.57;2.08;;;;;;;-2.27;64.03;101964.50;5000621;28;20054;-80
2021/01/16 01:12:52;;;;;;;5.45;2.65;;;;;;;-2.26;64.71;101966.22;4999783;28;20046;-82
2021/01/16 01:15:19;;;;;;;5.88;2.75;;;;;;;-2.23;65.31;101963.72;5009443;28;20072;-80
2021/01/16 01:17:51;;;;;;;4.47;2.42;;;;;;;-2.14;63.77;101965.56;4999073;28;20125;-80
2021/01/16 01:20:19;;;;;;;5.30;2.67;;;;;;;-2.28;65.62;101962.78;5002210;28;20066;-82
2021/01/16 01:22:47;;;;;;;5.43;2.97;;;;;;;-2.30;65.26;101951.56;4995780;28;20253;-80
2021/01/16 01:25:15;;;;;;;5.22;2.58;;;;;;;-2.21;64.81;101953.41;5003712;28;20042;-84
2021/01/16 01:27:42;;;;;;;5.38;2.00;;;;;;;-2.01;66.30;101953.72;5014083;28;20093;-84
2021/01/16 01:30:10;;;;;;;5.70;2.85;;;;;;;-2.07;64.86;101952.78;5015692;28;20044;-83
2021/01/16 01:32:38;;;;;;;6.43;2.58;;;;;;;-2.00;65.71;101955.44;4999404;28;20054;-82
2021/01/16 01:35:11;;;;;;;5.78;2.38;;;;;;;-2.18;66.00;101956.91;5016041;28;20041;-82
2021/01/16 01:37:40;;;;;;;7.85;2.70;;;;;;;-2.12;65.38;101962.13;5013109;28;20098;-83
2021/01/16 01:40:10;;;;;;;9.00;2.72;;;;;;;-2.04;65.20;101959.69;4986660;28;20051;-83
2021/01/16 01:42:37;;;;;;;7.07;3.33;;;;;;;-1.94;65.18;101956.38;5013012;28;20042;-83
2021/01/16 01:45:09;;;;;;;4.47;2.50;;;;;;;-1.94;65.30;101965.84;4996388;28;20078;-83
2021/01/16 01:47:41;;;;;;;4.10;2.50;;;;;;;-1.95;65.73;101951.19;5021015;28;20061;-83
2021/01/16 01:50:11;;;;;;;5.60;2.83;;;;;;;-1.85;66.30;101953.06;4999670;28;20118;-83
2021/01/16 01:52:39;;;;;;;4.60;2.67;;;;;;;-1.89;66.04;101954.75;5007714;28;20046;-83
2021/01/16 01:55:15;;;;;;;4.57;2.03;;;;;;;-2.07;65.33;101957.94;4997823;28;20051;-82
2021/01/16 01:57:50;;;;;;;8.27;2.50;;;;;;;-2.16;65.55;101947.50;5015590;28;20057;-83
2021/01/16 02:00:18;;;;;;;4.20;2.28;;;;;;;-2.31;65.95;101949.81;5005464;28;20272;-83
2021/01/16 02:02:46;;;;;;;6.40;2.40;;;;;;;-2.18;66.96;101938.84;5003974;28;20042;-83
2021/01/16 02:05:13;;;;;;;5.50;2.70;;;;;;;-2.07;67.06;101945.03;5005210;28;20581;-81
2021/01/16 02:07:45;;;;;;;7.07;2.90;;;;;;;-2.07;67.28;101944.19;4996989;28;20058;-83
2021/01/16 02:10:19;;;;;;;4.30;2.55;;;;;;;-2.19;66.44;101944.84;5005207;28;20050;-83
2021/01/16 02:12:48;;;;;;;3.67;2.38;;;;;;;-2.21;67.92;101938.78;5005867;28;20120;-83
2021/01/16 02:15:36;;;;;;;5.65;2.67;;;;;;;-2.05;67.34;101933.00;4992326;28;20065;-81
2021/01/16 02:18:06;;;;;;;9.18;2.92;;;;;;;-2.07;67.50;101933.84;5008627;28;20089;-80
2021/01/16 02:20:35;;;;;;;5.05;2.47;;;;;;;-2.61;68.51;101935.63;4999194;28;20056;-80
2021/01/16 02:23:08;;;;;;;5.13;3.00;;;;;;;-2.27;67.93;101927.53;4977838;28;20080;-80
2021/01/16 02:25:41;;;;;;;4.18;2.67;;;;;;;-2.34;67.79;101930.03;5016973;28;20256;-80
2021/01/16 02:28:09;;;;;;;4.82;2.55;;;;;;;-2.51;67.29;101930.63;5007317;28;20361;-82
2021/01/16 02:30:38;;;;;;;9.82;3.47;;;;;;;-2.60;67.94;101929.63;5020591;23;20536;-86
2021/01/16 02:33:09;;;;;;;5.38;2.88;;;;;;;-2.59;67.74;101931.34;4984316;28;20039;-85
2021/01/16 02:36:04;;;;;;;5.93;3.60;;;;;;;-2.61;68.16;101933.06;4987414;28;20050;-82
2021/01/16 02:39:03;;;;;;;4.90;2.78;;;;;;;-2.42;69.12;101923.03;4979834;28;20038;-86
2021/01/16 02:41:38;;;;;;;6.10;3.50;;;;;;;-2.82;69.59;101919.81;5016637;28;20049;-86
2021/01/16 02:44:22;;;;;;;5.88;3.30;;;;;;;-2.66;69.66;101919.19;4999942;28;20034;-86
2021/01/16 02:46:52;;;;;;;5.38;2.70;;;;;;;-2.75;69.64;101923.34;4980113;28;20092;-88
2021/01/16 02:49:22;;;;;;;6.18;3.38;;;;;;;-2.46;70.16;101918.66;4969867;28;20047;-86
2021/01/16 02:52:19;;;;;;;9.00;3.78;;;;;;;-2.42;69.71;101921.31;4987583;28;20050;-86
2021/01/16 02:54:49;;;;;;;5.55;2.83;;;;;;;-2.56;70.56;101915.94;4982261;28;20076;-87
2021/01/16 02:57:16;;;;;;;7.10;3.15;;;;;;;-2.51;70.84;101913.44;4961432;28;20580;-88
2021/01/16 02:59:44;;;;;;;8.23;4.13;;;;;;;-2.40;70.78;101917.03;4977394;28;20576;-87
2021/01/16 03:02:18;;;;;;;6.32;3.40;;;;;;;-2.59;70.45;101915.88;4975335;28;20066;-85
2021/01/16 03:04:48;;;;;;;6.95;4.07;;;;;;;-2.50;71.26;101917.75;4982509;28;20045;-85
2021/01/16 03:07:16;;;;;;;5.97;3.15;;;;;;;-2.61;71.30;101909.84;4964514;28;20050;-84
2021/01/16 03:09:43;;;;;;;9.77;3.95;;;;;;;-2.73;71.59;101912.22;4950315;28;20073;-90
2021/01/16 03:12:12;;;;;;;7.78;3.88;;;;;;;-2.52;72.67;101913.38;4963153;28;20125;-88
2021/01/16 03:14:54;;;;;;;12.70;4.43;;;;;;;-2.44;71.40;101916.97;4970658;28;20042;-85
2021/01/16 03:17:25;;;;;;;8.48;3.90;;;;;;;-2.37;72.28;101918.78;4950188;28;20574;-88
2021/01/16 03:19:53;;;;;;;7.28;3.85;;;;;;;-2.48;71.79;101915.19;4988287;28;20052;-86
2021/01/16 03:22:21;;;;;;;6.30;3.58;;;;;;;-2.55;72.01;101914.22;4976669;28;20049;-86
2021/01/16 03:24:50;;;;;;;6.82;4.20;;;;;;;-2.56;73.34;101909.91;4979517;28;20076;-85
2021/01/16 03:27:17;;;;;;;7.80;4.13;;;;;;;-2.60;73.12;101909.00;4952438;28;20130;-86
2021/01/16 03:29:44;;;;;;;7.38;3.58;;;;;;;-2.44;73.10;101910.09;4959121;28;20064;-85
2021/01/16 03:32:13;;;;;;;7.80;4.30;;;;;;;-2.45;73.71;101902.34;4983140;28;20062;-84
2021/01/16 03:34:44;;;;;;;11.27;4.60;;;;;;;-2.26;74.16;101901.75;4976961;28;20061;-86
2021/01/16 03:37:15;;;;;;;6.90;4.07;;;;;;;-2.14;73.85;101901.94;4995124;28;20065;-85
2021/01/16 03:39:42;;;;;;;7.72;4.43;;;;;;;-2.12;74.00;101900.22;4985870;28;20052;-87
2021/01/16 03:42:09;;;;;;;8.93;4.28;;;;;;;-2.24;73.74;101900.06;4992852;28;20152;-87
2021/01/16 03:44:37;;;;;;;7.15;4.30;;;;;;;-2.31;74.27;101903.41;4983442;28;20048;-87
2021/01/16 03:47:05;;;;;;;8.60;4.45;;;;;;;-2.42;74.65;101898.09;4966567;28;20135;-89
2021/01/16 03:49:33;;;;;;;8.98;4.25;;;;;;;-2.45;74.98;101902.34;4980363;28;20389;-88
2021/01/16 03:51:59;;;;;;;6.18;3.95;;;;;;;-2.49;75.84;101895.41;4976164;28;20328;-88
2021/01/16 03:54:27;;;;;;;7.18;4.25;;;;;;;-2.37;75.38;101891.28;5004365;28;20045;-84
2021/01/16 03:56:54;;;;;;;10.43;5.05;;;;;;;-2.35;76.76;101889.59;4989660;28;20045;-80
2021/01/16 03:59:21;;;;;;;9.52;4.88;;;;;;;-2.43;76.44;101886.06;5000729;28;20046;-85
2021/01/16 04:01:48;;;;;;;9.38;4.78;;;;;;;-2.64;76.97;101885.72;4981643;28;20419;-86
2021/01/16 04:04:16;;;;;;;11.00;4.72;;;;;;;-2.90;77.91;101887.88;4975538;28;20058;-87
2021/01/16 04:06:43;;;;;;;11.73;5.13;;;;;;;-2.75;78.93;101887.25;4987320;28;20050;-87
2021/01/16 04:09:10;;;;;;;9.68;5.22;;;;;;;-2.47;79.07;101879.13;4970533;28;20628;-85
2021/01/16 04:11:37;;;;;;;10.05;4.95;;;;;;;-2.44;78.47;101873.13;4996785;28;20137;-85
2021/01/16 04:14:04;;;;;;;14.77;5.10;;;;;;;-2.44;77.78;101875.69;4945827;28;20074;-85
2021/01/16 04:16:31;;;;;;;9.30;4.70;;;;;;;-2.51;79.14;101871.31;4985249;28;20076;-87
2021/01/16 04:18:58;;;;;;;8.95;4.82;;;;;;;-2.50;79.75;101870.47;4981927;28;20062;-84
2021/01/16 04:21:27;;;;;;;13.93;4.93;;;;;;;-2.43;78.46;101864.53;4979943;28;20145;-86
2021/01/16 04:23:56;;;;;;;8.13;4.30;;;;;;;-2.54;79.46;101866.97;4966308;28;20149;-88
2021/01/16 04:26:23;;;;;;;11.27;4.75;;;;;;;-2.33;79.84;101863.84;4982969;28;20133;-89
2021/01/16 04:28:50;;;;;;;11.07;4.57;;;;;;;-2.64;79.38;101867.69;4963832;28;20048;-87
2021/01/16 04:31:17;;;;;;;12.07;4.68;;;;;;;-2.39;79.87;101862.03;4991909;28;20081;-87
2021/01/16 04:33:46;;;;;;;11.68;5.07;;;;;;;-2.84;79.97;101859.63;4956740;28;20050;-82
2021/01/16 04:36:13;;;;;;;9.43;3.83;;;;;;;-2.82;80.52;101850.22;4963243;28;20239;-85
2021/01/16 04:38:42;;;;;;;9.88;4.95;;;;;;;-2.85;80.65;101852.75;4988707;28;20485;-87
2021/01/16 04:41:14;;;;;;;9.05;4.95;;;;;;;-2.78;81.19;101846.84;4957595;28;20073;-88
2021/01/16 04:43:41;;;;;;;7.70;4.53;;;;;;;-2.74;80.75;101842.63;4996612;28;20025;-84
2021/01/16 04:46:09;;;;;;;12.18;4.65;;;;;;;-2.70;81.09;101852.09;4976394;28;20038;-86
2021/01/16 04:48:36;;;;;;;9.88;5.28;;;;;;;-2.72;80.48;101853.81;4997122;28;20167;-85
2021/01/16 04:51:04;;;;;;;9.45;5.53;;;;;;;-2.75;81.06;101846.03;4981001;28;20084;-83
2021/01/16 04:53:39;;;;;;;8.57;5.30;;;;;;;-2.58;81.29;101855.75;4991055;28;20062;-86
2021/01/16 04:56:10;;;;;;;8.32;5.13;;;;;;;-2.77;81.18;101850.31;4985986;28;20058;-83
2021/01/16 04:58:38;;;;;;;10.07;5.05;;;;;;;-2.72;81.35;101852.09;4993891;28;20289;-84
2021/01/16 05:01:07;;;;;;;10.30;5.78;;;;;;;-2.57;81.60;101847.19;4989309;28;20130;-86
2021/01/16 05:03:39;;;;;;;9.63;4.65;;;;;;;-2.57;81.01;101844.59;4957528;28;20038;-85
2021/01/16 05:06:09;;;;;;;9.40;5.13;;;;;;;-2.50;80.78;101842.09;5002326;28;20119;-86
2021/01/16 05:08:43;;;;;;;10.40;5.03;;;;;;;-2.65;80.77;101841.03;5010616;28;20093;-85
2021/01/16 05:11:13;;;;;;;8.45;4.80;;;;;;;-2.68;81.43;101841.00;4997263;28;20106;-84
2021/01/16 05:13:46;;;;;;;8.30;5.05;;;;;;;-2.58;81.42;101847.16;5013658;28;20078;-87
2021/01/16 05:16:14;;;;;;;11.05;5.70;;;;;;;-2.84;82.28;101839.91;4980249;28;20062;-83
2021/01/16 05:18:45;;;;;;;11.02;5.70;;;;;;;-2.55;82.60;101839.47;4996195;28;20049;-86
2021/01/16 05:21:12;;;;;;;11.48;5.80;;;;;;;-2.68;82.12;101851.31;4999703;28;20043;-84
2021/01/16 05:23:43;;;;;;;12.77;6.22;;;;;;;-2.74;82.36;101842.63;5009517;28;20058;-83
2021/01/16 05:26:12;;;;;;;11.00;5.43;;;;;;;-2.70;82.11;101842.69;4991273;28;20026;-87
2021/01/16 05:28:39;;;;;;;15.00;6.53;;;;;;;-2.69;83.04;101841.84;4995830;28;20034;-83
2021/01/16 05:31:07;;;;;;;13.57;6.03;;;;;;;-2.67;82.44;101837.56;5013929;28;20044;-87
2021/01/16 05:33:38;;;;;;;13.35;6.10;;;;;;;-2.57;82.44;101831.72;5001364;28;20050;-83
2021/01/16 05:36:08;;;;;;;9.60;5.57;;;;;;;-2.52;82.58;101826.63;4992134;28;20143;-88
2021/01/16 05:38:40;;;;;;;12.20;6.60;;;;;;;-2.48;82.49;101823.22;4979906;28;20030;-85
2021/01/16 05:41:09;;;;;;;13.90;5.53;;;;;;;-2.55;81.88;101819.69;5007214;28;20061;-85
2021/01/16 05:43:38;;;;;;;8.88;5.30;;;;;;;-2.68;82.64;101819.50;4973015;28;20181;-82
2021/01/16 05:46:14;;;;;;;9.85;5.53;;;;;;;-2.74;83.47;101815.13;4979392;28;20046;-86
2021/01/16 05:48:40;;;;;;;11.85;5.90;;;;;;;-2.45;83.39;101831.00;5006642;28;20037;-86
2021/01/16 05:51:07;;;;;;;10.48;5.55;;;;;;;-2.36;82.63;101817.38;4995453;28;20034;-85
2021/01/16 05:53:35;;;;;;;12.18;6.13;;;;;;;-2.29;82.48;101816.63;4996449;28;20037;-87
2021/01/16 05:56:04;;;;;;;12.30;6.75;;;;;;;-2.28;81.73;101810.59;4981118;28;20042;-85
2021/01/16 05:58:33;;;;;;;12.50;6.18;;;;;;;-2.30;81.76;101810.59;5012236;28;20053;-84
2021/01/16 06:01:06;;;;;;;9.98;5.88;;;;;;;-2.26;81.89;101813.19;4995131;28;20062;-88
2021/01/16 06:03:37;;;;;;;13.80;6.30;;;;;;;-2.12;82.10;101803.91;4961648;28;20061;-84
2021/01/16 06:06:11;;;;;;;12.70;6.43;;;;;;;-2.22;81.53;101799.50;4990744;28;20106;-84
2021/01/16 06:08:50;;;;;;;10.18;5.90;;;;;;;-2.47;82.20;101809.50;4995858;28;20026;-82
2021/01/16 06:11:22;;;;;;;20.38;6.63;;;;;;;-2.23;82.35;101800.34;4980042;28;20035;-86
2021/01/16 06:13:50;;;;;;;18.60;6.72;;;;;;;-2.36;82.51;101807.06;4986857;28;20050;-88
2021/01/16 06:16:21;;;;;;;14.75;6.63;;;;;;;-2.28;83.02;101796.84;4979859;28;20111;-88
2021/01/16 06:18:57;;;;;;;14.43;6.82;;;;;;;-2.43;82.50;101790.66;4986168;28;20038;-85
2021/01/16 06:21:29;;;;;;;14.05;6.45;;;;;;;-2.39;83.29;101800.13;4968182;28;20034;-87
2021/01/16 06:23:57;;;;;;;11.25;6.40;;;;;;;-2.25;83.33;101796.88;4979383;28;20039;-86
2021/01/16 06:26:26;;;;;;;13.52;6.28;;;;;;;-2.42;82.92;101796.66;5002728;28;20098;-80
2021/01/16 06:29:04;;;;;;;13.80;6.32;;;;;;;-2.27;82.91;101793.41;5003257;28;20034;-86
2021/01/16 06:31:33;;;;;;;12.82;6.70;;;;;;;-2.06;82.66;101789.38;4979722;28;20061;-84
2021/01/16 06:34:05;;;;;;;11.15;6.43;;;;;;;-2.15;81.89;101796.16;4999668;28;20055;-86
2021/01/16 06:36:36;;;;;;;13.30;6.80;;;;;;;-2.35;82.94;101791.59;5004617;28;20046;-87
2021/01/16 06:39:06;;;;;;;12.00;7.38;;;;;;;-2.23;82.50;101796.03;4988274;28;20057;-85
2021/01/16 06:41:49;;;;;;;11.88;6.05;;;;;;;-2.25;82.72;101792.59;4953589;28;20452;-87
2021/01/16 06:44:19;;;;;;;11.75;5.95;;;;;;;-2.35;82.89;101806.19;4978451;28;20073;-86
2021/01/16 06:46:48;;;;;;;11.30;6.15;;;;;;;-2.17;82.90;101792.66;4979639;28;20050;-86
2021/01/16 06:49:21;;;;;;;12.60;6.28;;;;;;;-2.19;82.45;101794.38;4974644;28;20046;-84
2021/01/16 06:51:58;;;;;;;10.27;6.13;;;;;;;-2.32;82.03;101786.47;4989064;28;20058;-85
2021/01/16 06:54:26;;;;;;;9.18;5.78;;;;;;;-2.32;82.47;101789.06;4965879;28;20060;-86
2021/01/16 06:57:04;;;;;;;10.88;5.72;;;;;;;-2.20;82.32;101792.66;4981986;28;20074;-85
2021/01/16 07:00:00;;;;;;;14.60;6.20;;;;;;;-2.24;81.69;101783.16;5006317;28;20058;-84
2021/01/16 07:02:30;;;;;;;11.85;6.60;;;;;;;-2.38;81.95;101782.97;4982057;28;20438;-82
2021/01/16 07:04:59;;;;;;;14.93;6.28;;;;;;;-2.19;82.59;101781.47;4968888;28;20135;-82
2021/01/16 07:07:37;;;;;;;8.85;5.20;;;;;;;-2.35;81.68;101780.41;4983314;28;20057;-85
2021/01/16 07:10:13;;;;;;;12.65;5.72;;;;;;;-2.24;81.52;101778.84;5001625;28;20126;-85
2021/01/16 07:12:49;;;;;;;10.75;5.90;;;;;;;-2.23;81.36;101778.00;4991660;28;20038;-81
2021/01/16 07:15:17;;;;;;;;;;;;;;;-2.37;81.58;101782.97;4975048;28;20046;-88
2021/01/16 07:17:45;;;;;;;9.52;5.40;;;;;;;-2.27;81.89;101772.78;4993158;28;19957;-89
2021/01/16 07:20:17;;;;;;;10.57;6.03;;;;;;;-2.15;81.27;101780.66;4988586;28;20121;-83
2021/01/16 07:22:47;;;;;;;12.63;5.85;;;;;;;-2.18;81.02;101788.38;4993220;28;20077;-89
2021/01/16 07:25:15;;;;;;;11.88;6.35;;;;;;;-2.19;80.86;101790.09;4994308;28;20327;-87
2021/01/16 07:27:43;;;;;;;14.95;6.60;;;;;;;-2.21;80.96;101783.16;4992388;28;20056;-86
2021/01/16 07:30:11;;;;;;;11.25;5.78;;;;;;;-2.10;80.87;101782.44;4997444;28;20072;-87
2021/01/16 07:32:42;;;;;;;13.45;6.63;;;;;;;-2.00;79.86;101785.13;4971597;28;20042;-82
2021/01/16 07:35:11;;;;;;;10.60;6.15;;;;;;;-2.14;80.48;101791.00;4976775;28;20074;-87
2021/01/16 07:37:44;;;;;;;15.10;6.85;;;;;;;-2.11;80.25;101779.84;4971692;28;20046;-88
2021/01/16 07:40:29;;;;;;;10.82;6.03;;;;;;;-2.13;80.94;101777.25;4991346;28;20058;-83
2021/01/16 07:43:00;;;;;;;15.00;6.70;;;;;;;-1.96;80.61;101772.28;4978056;28;20049;-88
2021/01/16 07:45:31;;;;;;;16.90;7.93;;;;;;;-1.44;81.09;101774.50;4980006;28;20051;-86
2021/01/16 07:48:00;;;;;;;10.95;6.10;;;;;;;-1.64;78.51;101769.16;4967067;28;20047;-85
2021/01/16 07:50:29;;;;;;;32.33;8.25;;;;;;;-2.06;79.76;101762.72;4968849;28;20054;-84
2021/01/16 07:53:02;;;;;;;21.70;8.13;;;;;;;-2.04;79.80;101764.44;4981769;28;20054;-89
2021/01/16 07:55:43;;;;;;;13.18;6.95;;;;;;;-2.28;80.76;101773.63;5007080;28;20026;-86
2021/01/16 07:58:19;;;;;;;13.63;6.80;;;;;;;-2.11;81.12;101756.66;4976981;28;20062;-89
2021/01/16 08:01:02;;;;;;;14.38;6.82;;;;;;;-1.89;80.38;101766.34;4995088;28;20046;-86
2021/01/16 08:04:00;;;;;;;14.10;7.20;;;;;;;-1.82;80.56;101767.25;4969748;28;20089;-85
2021/01/16 08:06:44;;;;;;;12.25;6.88;;;;;;;-2.04;80.77;101761.88;4983728;28;20086;-85
2021/01/16 08:09:25;;;;;;;11.48;6.63;;;;;;;-1.94;81.55;101754.22;5004947;28;20055;-85
2021/01/16 08:12:02;;;;;;;12.18;6.75;;;;;;;-1.90;81.30;101762.00;4994230;28;20038;-86
2021/01/16 08:14:32;;;;;;;12.13;6.35;;;;;;;-2.19;81.49;101769.44;4984922;28;20431;-85
2021/01/16 08:17:02;;;;;;;17.25;8.40;;;;;;;-2.24;82.34;101765.94;4979747;28;20054;-83
2021/01/16 08:20:00;;;;;;;13.95;6.93;;;;;;;-2.24;81.82;101762.50;4967387;28;20092;-87
2021/01/16 08:22:44;;;;;;;11.00;6.68;;;;;;;-2.13;81.41;101758.31;4992450;28;20054;-84
2021/01/16 08:25:14;;;;;;;13.30;6.88;;;;;;;-2.10;82.44;101759.22;4967400;28;20046;-85
2021/01/16 08:27:48;;;;;;;14.38;7.47;;;;;;;-2.15;82.30;101757.44;4972061;28;20494;-81
2021/01/16 08:30:16;;;;;;;13.63;7.25;;;;;;;-2.12;81.92;101757.47;4984041;28;20054;-85
2021/01/16 08:33:02;;;;;;;15.27;7.63;;;;;;;-2.32;82.38;101760.69;5003218;28;20042;-86
2021/01/16 08:35:48;;;;;;;13.27;6.85;;;;;;;-2.32;82.52;101755.53;4982208;28;20513;-85
2021/01/16 08:38:22;;;;;;;;;;;;;;;-2.33;82.30;101752.94;4974031;28;20058;-82
2021/01/16 08:41:07;;;;;;;10.57;6.32;;;;;;;-2.10;81.99;101745.47;5001437;28;19961;-86
2021/01/16 08:43:42;;;;;;;11.48;6.07;;;;;;;-2.12;81.27;101741.97;4987837;28;20057;-83
2021/01/16 08:46:16;;;;;;;12.95;7.07;;;;;;;-2.21;81.42;101740.16;4978397;28;20058;-88
2021/01/16 08:49:06;;;;;;;20.30;7.45;;;;;;;-2.23;81.65;101735.84;4965029;28;20042;-84
2021/01/16 08:51:39;;;;;;;15.32;6.85;;;;;;;-1.97;82.19;101728.41;4975273;28;20064;-88
2021/01/16 08:54:18;;;;;;;12.18;7.72;;;;;;;-1.92;81.19;101727.59;4977958;28;20445;-87
2021/01/16 08:57:11;;;;;;;13.25;7.72;;;;;;;-2.00;80.82;101734.38;4990820;28;20040;-87
2021/01/16 08:59:45;;;;;;;14.40;7.10;;;;;;;-2.20;80.84;101728.16;4980852;28;20490;-84
2021/01/16 09:02:15;;;;;;;14.70;8.30;;;;;;;-2.10;80.94;101732.56;4961733;28;20079;-87
2021/01/16 09:04:45;;;;;;;12.70;7.38;;;;;;;-2.05;81.04;101731.75;4979883;28;20170;-89
2021/01/16 09:07:20;;;;;;;12.48;7.32;;;;;;;-1.76;80.47;101726.00;4962865;28;20492;-85
2021/01/16 09:10:01;;;;;;;15.93;7.30;;;;;;;-1.82;79.67;101734.56;4965469;28;20058;-81
2021/01/16 09:12:29;;;;;;;13.30;7.25;;;;;;;-2.04;80.30;101730.91;4990691;28;20214;-83
2021/01/16 09:15:15;;;;;;;17.17;7.82;;;;;;;-1.94;79.50;101726.69;4973008;28;20097;-83
2021/01/16 09:17:42;;;;;;;17.20;7.85;;;;;;;-2.16;80.30;101728.22;5006080;28;20141;-87
2021/01/16 09:20:09;;;;;;;16.42;7.40;;;;;;;-1.89;80.11;101729.31;4994975;28;20409;-85
2021/01/16 09:22:36;;;;;;;14.30;7.78;;;;;;;-1.54;79.40;101732.22;4989931;28;20058;-88
2021/01/16 09:25:32;;;;;;;14.38;7.43;;;;;;;-1.51;78.92;101734.84;4992448;28;20053;-86
2021/01/16 09:28:03;;;;;;;;;;;;;;;-1.65;77.40;101724.41;4972595;28;20112;-80
2021/01/16 09:30:31;;;;;;;13.13;7.28;;;;;;;-1.49;78.26;101729.69;4992439;28;19931;-85
2021/01/16 09:33:19;;;;;;;13.02;6.93;;;;;;;-1.44;77.73;101718.56;4966879;28;20033;-89
2021/01/16 09:35:51;;;;;;;14.05;7.80;;;;;;;-1.26;77.20;101720.44;4978728;28;20042;-87
2021/01/16 09:38:22;;;;;;;12.57;7.53;;;;;;;-1.11;76.25;101725.69;4979924;28;20058;-87
2021/01/16 09:40:52;;;;;;;12.38;6.40;;;;;;;-1.31;76.11;101717.81;4996785;28;20046;-88
2021/01/16 09:43:26;;;;;;;13.00;6.78;;;;;;;-1.76;77.94;101713.09;4990396;28;20046;-85
2021/01/16 09:45:58;;;;;;;11.70;6.82;;;;;;;-1.22;76.58;101716.13;4971248;28;20132;-86
2021/01/16 09:48:42;;;;;;;13.27;7.25;;;;;;;-1.14;76.67;101714.47;4987948;28;20089;-84
2021/01/16 09:51:11;;;;;;;11.45;6.95;;;;;;;-1.11;76.62;101707.59;4981276;28;20648;-88
2021/01/16 09:53:42;;;;;;;13.50;7.78;;;;;;;-0.81;75.89;101703.44;4974669;28;20093;-83
2021/01/16 09:56:10;;;;;;;14.30;8.32;;;;;;;-1.04;75.56;101699.03;4964154;28;20046;-89
2021/01/16 09:58:44;;;;;;;14.52;8.20;;;;;;;-1.03;75.31;101692.16;4979575;28;20057;-80
2021/01/16 10:01:25;;;;;;;15.85;8.40;;;;;;;-1.02;75.59;101688.69;4966433;28;20055;-87
2021/01/16 10:04:04;;;;;;;15.00;8.25;;;;;;;-1.17;76.38;101688.59;4967210;28;20070;-86
2021/01/16 10:06:34;;;;;;;13.00;6.95;;;;;;;-1.00;75.49;101696.44;4968581;28;20038;-89
2021/01/16 10:09:22;;;;;;;15.18;7.85;;;;;;;-0.91;76.29;101694.78;4969752;28;20057;-90
2021/01/16 10:11:52;;;;;;;11.93;7.05;;;;;;;-0.83;74.26;101687.06;4976418;28;20058;-87
2021/01/16 10:14:38;;;;;;;13.38;6.28;;;;;;;-0.91;74.40;101683.56;4964526;28;20274;-87
2021/01/16 10:17:11;;;;;;;14.20;6.63;;;;;;;-1.05;74.37;101674.03;4980892;28;20085;-86
2021/01/16 10:19:38;;;;;;;13.05;7.20;;;;;;;-0.77;74.26;101674.16;4956283;28;20580;-85
2021/01/16 10:22:12;;;;;;;11.70;6.68;;;;;;;-1.07;74.68;101673.16;4971594;28;20645;-86
2021/01/16 10:24:45;;;;;;;8.30;5.27;;;;;;;-1.13;73.68;101670.53;4995550;28;20184;-88
2021/01/16 10:27:43;;;;;;;14.00;7.15;;;;;;;-0.97;75.07;101668.91;4942639;28;20090;-86
2021/01/16 10:30:34;;;;;;;11.52;6.32;;;;;;;-0.92;74.76;101656.00;4993646;28;20103;-88
2021/01/16 10:33:20;;;;;;;12.15;7.50;;;;;;;-0.95;74.01;101661.16;4972553;28;20042;-84
2021/01/16 10:36:10;;;;;;;10.05;5.90;;;;;;;-1.23;74.20;101662.72;4996955;28;20476;-86
2021/01/16 10:38:55;;;;;;;15.63;6.38;;;;;;;-1.27;74.73;101656.66;5007847;28;20030;-88
2021/01/16 10:41:38;;;;;;;14.15;6.93;;;;;;;-1.02;74.06;101657.69;5003894;23;21381;-76
2021/01/16 10:44:09;;;;;;;12.93;5.97;;;;;;;-0.69;72.61;101656.97;4968998;28;20042;-77
2021/01/16 10:46:46;;;;;;;17.70;7.45;;;;;;;-0.57;73.91;101654.44;4958237;28;20054;-78
2021/01/16 10:49:30;;;;;;;12.38;6.43;;;;;;;-0.73;72.18;101646.59;4983549;28;20063;-77
2021/01/16 10:52:02;;;;;;;15.63;6.82;;;;;;;-0.73;71.87;101638.84;4974137;28;20054;-75
2021/01/16 10:54:30;;;;;;;13.15;6.50;;;;;;;-0.55;71.98;101642.34;4968711;28;20106;-76
2021/01/16 10:57:03;;;;;;;10.73;5.97;;;;;;;-0.45;70.24;101638.09;4984875;28;20323;-77
2021/01/16 10:59:31;;;;;;;13.60;6.85;;;;;;;-0.61;70.59;101637.19;4961591;28;20084;-77
2021/01/16 11:01:59;;;;;;;12.23;6.35;;;;;;;-0.64;71.42;101638.88;4947619;28;20051;-78
2021/01/16 11:04:28;;;;;;;12.45;6.63;;;;;;;-0.41;70.70;101637.22;4988967;28;20043;-77
2021/01/16 11:06:58;;;;;;;12.73;6.07;;;;;;;-0.53;71.76;101637.22;4969542;28;20065;-76
2021/01/16 11:09:32;;;;;;;11.65;6.13;;;;;;;-0.82;70.44;101626.75;4967472;28;20528;-76
2021/01/16 11:12:04;;;;;;;10.93;5.50;;;;;;;-0.61;70.55;101625.97;4986310;28;20050;-76
2021/01/16 11:14:42;;;;;;;11.95;5.18;;;;;;;-0.37;69.68;101619.97;4958797;28;20046;-76
2021/01/16 11:17:10;;;;;;;15.13;5.88;;;;;;;-0.55;69.87;101619.06;4969712;28;20062;-75
2021/01/16 11:19:38;;;;;;;13.52;6.70;;;;;;;-0.45;70.36;101613.94;4966875;28;20050;-76
2021/01/16 11:22:18;;;;;;;11.23;6.63;;;;;;;-0.38;69.00;101610.50;4986206;28;20062;-76
2021/01/16 11:24:52;;;;;;;11.93;5.70;;;;;;;-0.66;70.12;101601.81;4969628;28;20141;-77
2021/01/16 11:27:23;;;;;;;9.57;5.43;;;;;;;-0.55;70.22;101605.28;4983266;28;20050;-76
2021/01/16 11:29:51;;;;;;;31.60;7.60;;;;;;;-0.54;72.36;101597.56;4975128;28;20229;-77
2021/01/16 11:32:21;;;;;;;24.08;8.70;;;;;;;-0.33;70.46;101599.28;4958106;28;20046;-77
2021/01/16 11:35:01;;;;;;;10.23;5.93;;;;;;;-0.69;70.19;101597.50;4962781;28;20156;-77
2021/01/16 11:37:56;;;;;;;12.52;6.25;;;;;;;-0.74;69.93;101590.59;4967632;28;20069;-78
2021/01/16 11:40:33;;;;;;;14.55;5.63;;;;;;;-0.93;70.48;101585.34;4964504;28;20038;-76
2021/01/16 11:43:10;;;;;;;12.05;6.55;;;;;;;-1.00;71.39;101575.84;4983124;28;20050;-77
2021/01/16 11:45:37;;;;;;;10.68;6.10;;;;;;;-0.72;70.49;101579.41;4961174;28;20583;-75